Hebron, New Hampshire
Current Conditions -  °F | °C
As of 2:55 AM on Saturday 25 Oct 2014 (Local Time) from K1P1 Reporting Station
Clear Clear  
Wind Chill: 44°   Ceiling: Unl
Heat Index: 46°   Visibility: 10mi
Dew Point: 38°   Wind: 5mph
Humidity: 74%   Direction: 340°NNW
Pressure: 29.73"   Gusts: NA
Location:  43.69°N, 71.81°W
Report Text: K1P1 250655Z AUTO 34004KT 10SM CLR 08/04 A2973 RMK AO2 T00780035
Loading
Personal Weather Stations






























Interactive Weather Map New forecast layout! Learn more

10-Day Weather Forecast

Advertisements
Track Severe Weather on mobile